sensor_id;sensor_type;location;lat;lon;timestamp;pressure;altitude;pressure_sealevel;temperature;humidity
5595;BME280;1003;48.002;7.788;2023-02-18T00:00:56;101296.56;;;11.21;100.00
5595;BME280;1003;48.002;7.788;2023-02-18T00:03:24;101296.34;;;11.12;100.00
5595;BME280;1003;48.002;7.788;2023-02-18T00:05:53;101291.31;;;11.12;100.00
5595;BME280;1003;48.002;7.788;2023-02-18T00:08:20;101288.06;;;11.16;100.00
5595;BME280;1003;48.002;7.788;2023-02-18T00:10:48;101276.19;;;11.11;100.00
5595;BME280;1003;48.002;7.788;2023-02-18T00:13:15;101275.25;;;11.06;100.00
5595;BME280;1003;48.002;7.788;2023-02-18T00:15:42;101269.25;;;11.00;100.00
5595;BME280;1003;48.002;7.788;2023-02-18T00:18:09;101285.31;;;11.06;100.00
5595;BME280;1003;48.002;7.788;2023-02-18T00:20:38;101284.34;;;10.99;100.00
5595;BME280;1003;48.002;7.788;2023-02-18T00:23:06;101275.88;;;10.95;100.00
5595;BME280;1003;48.002;7.788;2023-02-18T00:25:34;101286.72;;;10.93;100.00
5595;BME280;1003;48.002;7.788;2023-02-18T00:28:01;101281.59;;;10.90;100.00
5595;BME280;1003;48.002;7.788;2023-02-18T00:30:28;101278.13;;;10.83;100.00
5595;BME280;1003;48.002;7.788;2023-02-18T00:32:55;101278.13;;;10.83;100.00
5595;BME280;1003;48.002;7.788;2023-02-18T00:35:22;101283.84;;;10.77;100.00
5595;BME280;1003;48.002;7.788;2023-02-18T00:37:51;101282.16;;;10.76;100.00
5595;BME280;1003;48.002;7.788;2023-02-18T00:40:20;101280.44;;;10.75;100.00
5595;BME280;1003;48.002;7.788;2023-02-18T00:42:47;101282.94;;;10.74;100.00
5595;BME280;1003;48.002;7.788;2023-02-18T00:45:14;101288.78;;;10.73;100.00
5595;BME280;1003;48.002;7.788;2023-02-18T00:47:41;101292.31;;;10.81;100.00
5595;BME280;1003;48.002;7.788;2023-02-18T00:50:10;101278.00;;;10.78;100.00
5595;BME280;1003;48.002;7.788;2023-02-18T00:52:37;101276.97;;;10.70;100.00
5595;BME280;1003;48.002;7.788;2023-02-18T00:55:05;101297.56;;;10.90;100.00
5595;BME280;1003;48.002;7.788;2023-02-18T00:57:33;101281.97;;;10.69;100.00
5595;BME280;1003;48.002;7.788;2023-02-18T01:00:00;101288.56;;;10.65;100.00
5595;BME280;1003;48.002;7.788;2023-02-18T01:02:27;101285.47;;;10.75;100.00
5595;BME280;1003;48.002;7.788;2023-02-18T01:04:54;101281.91;;;10.66;100.00
5595;BME280;1003;48.002;7.788;2023-02-18T01:07:21;101281.03;;;10.65;100.00
5595;BME280;1003;48.002;7.788;2023-02-18T01:09:48;101281.00;;;10.64;100.00
5595;BME280;1003;48.002;7.788;2023-02-18T01:12:16;101277.47;;;10.56;100.00
5595;BME280;1003;48.002;7.788;2023-02-18T01:14:44;101284.25;;;10.60;100.00
5595;BME280;1003;48.002;7.788;2023-02-18T01:17:11;101278.47;;;10.62;100.00
5595;BME280;1003;48.002;7.788;2023-02-18T01:19:38;101281.00;;;10.64;100.00
5595;BME280;1003;48.002;7.788;2023-02-18T01:22:05;101265.06;;;10.63;100.00
5595;BME280;1003;48.002;7.788;2023-02-18T01:24:32;101266.81;;;10.66;100.00
5595;BME280;1003;48.002;7.788;2023-02-18T01:27:00;101265.94;;;10.65;100.00
5595;BME280;1003;48.002;7.788;2023-02-18T01:29:27;101238.44;;;10.71;100.00
5595;BME280;1003;48.002;7.788;2023-02-18T01:31:55;101179.91;;;10.78;100.00
5595;BME280;1003;48.002;7.788;2023-02-18T01:34:22;101179.91;;;10.78;100.00
5595;BME280;1003;48.002;7.788;2023-02-18T01:36:49;101175.81;;;10.84;100.00
5595;BME280;1003;48.002;7.788;2023-02-18T01:39:16;101180.16;;;10.91;100.00
5595;BME280;1003;48.002;7.788;2023-02-18T01:41:43;101177.66;;;10.92;100.00
5595;BME280;1003;48.002;7.788;2023-02-18T01:44:16;101171.94;;;10.98;100.00
5595;BME280;1003;48.002;7.788;2023-02-18T01:46:44;101171.94;;;10.98;100.00
5595;BME280;1003;48.002;7.788;2023-02-18T01:49:18;101165.06;;;10.92;100.00
5595;BME280;1003;48.002;7.788;2023-02-18T01:51:49;101160.91;;;10.93;100.00
5595;BME280;1003;48.002;7.788;2023-02-18T01:54:22;101152.44;;;10.89;100.00
5595;BME280;1003;48.002;7.788;2023-02-18T01:56:57;101161.75;;;10.93;100.00
5595;BME280;1003;48.002;7.788;2023-02-18T01:59:30;101160.03;;;10.91;100.00
5595;BME280;1003;48.002;7.788;2023-02-18T02:01:59;101159.25;;;10.93;100.00
5595;BME280;1003;48.002;7.788;2023-02-18T02:04:27;101156.84;;;10.98;100.00
5595;BME280;1003;48.002;7.788;2023-02-18T02:06:54;101156.94;;;11.04;100.00
5595;BME280;1003;48.002;7.788;2023-02-18T02:09:26;101159.63;;;11.13;100.00
5595;BME280;1003;48.002;7.788;2023-02-18T02:12:27;101147.03;;;11.13;100.00
5595;BME280;1003;48.002;7.788;2023-02-18T02:15:21;101129.41;;;11.12;100.00
5595;BME280;1003;48.002;7.788;2023-02-18T02:18:08;101126.88;;;11.12;100.00
5595;BME280;1003;48.002;7.788;2023-02-18T02:24:49;101095.00;;;11.12;100.00
5595;BME280;1003;48.002;7.788;2023-02-18T02:27:25;101096.88;;;11.21;100.00
5595;BME280;1003;48.002;7.788;2023-02-18T02:30:39;101085.97;;;11.22;100.00
5595;BME280;1003;48.002;7.788;2023-02-18T02:33:43;101073.25;;;11.14;100.00
5595;BME280;1003;48.002;7.788;2023-02-18T02:36:21;101069.84;;;11.12;100.00
5595;BME280;1003;48.002;7.788;2023-02-18T02:38:57;101062.94;;;11.02;100.00
5595;BME280;1003;48.002;7.788;2023-02-18T02:41:42;101066.41;;;11.07;100.00
5595;BME280;1003;48.002;7.788;2023-02-18T02:44:20;101058.03;;;11.08;100.00
5595;BME280;1003;48.002;7.788;2023-02-18T02:46:51;101054.72;;;11.09;100.00
5595;BME280;1003;48.002;7.788;2023-02-18T02:49:35;101047.19;;;11.12;100.00
5595;BME280;1003;48.002;7.788;2023-02-18T02:52:13;101038.72;;;11.07;100.00
5595;BME280;1003;48.002;7.788;2023-02-18T02:54:42;101043.66;;;11.02;100.00
5595;BME280;1003;48.002;7.788;2023-02-18T02:57:44;101030.94;;;10.93;100.00
5595;BME280;1003;48.002;7.788;2023-02-18T03:00:15;101032.72;;;10.99;100.00
5595;BME280;1003;48.002;7.788;2023-02-18T03:03:00;101033.53;;;10.98;100.00
5595;BME280;1003;48.002;7.788;2023-02-18T03:05:43;101017.50;;;10.93;100.00
5595;BME280;1003;48.002;7.788;2023-02-18T03:08:38;101018.28;;;10.90;100.00
5595;BME280;1003;48.002;7.788;2023-02-18T03:11:10;101024.16;;;10.91;100.00
5595;BME280;1003;48.002;7.788;2023-02-18T03:13:55;101009.91;;;10.90;100.00
5595;BME280;1003;48.002;7.788;2023-02-18T03:16:31;101014.09;;;10.89;100.00
5595;BME280;1003;48.002;7.788;2023-02-18T03:19:10;101016.56;;;10.88;100.00
5595;BME280;1003;48.002;7.788;2023-02-18T03:21:45;101014.81;;;10.84;100.00
5595;BME280;1003;48.002;7.788;2023-02-18T03:24:21;101005.63;;;10.86;100.00
5595;BME280;1003;48.002;7.788;2023-02-18T03:26:55;101003.09;;;10.84;100.00
5595;BME280;1003;48.002;7.788;2023-02-18T03:29:26;101005.91;;;11.01;100.00
5595;BME280;1003;48.002;7.788;2023-02-18T03:31:59;101009.44;;;11.12;100.00
5595;BME280;1003;48.002;7.788;2023-02-18T03:34:30;101001.78;;;11.04;100.00
5595;BME280;1003;48.002;7.788;2023-02-18T03:37:00;101000.13;;;11.08;100.00
5595;BME280;1003;48.002;7.788;2023-02-18T03:39:31;101004.31;;;11.06;100.00
5595;BME280;1003;48.002;7.788;2023-02-18T03:42:00;101008.59;;;11.12;100.00
5595;BME280;1003;48.002;7.788;2023-02-18T03:44:27;100996.69;;;11.01;100.00
5595;BME280;1003;48.002;7.788;2023-02-18T03:46:54;101003.59;;;11.13;100.00
5595;BME280;1003;48.002;7.788;2023-02-18T03:49:21;101009.53;;;11.17;100.00
5595;BME280;1003;48.002;7.788;2023-02-18T03:51:48;100996.00;;;11.10;100.00
5595;BME280;1003;48.002;7.788;2023-02-18T03:54:15;100994.19;;;11.03;100.00
5595;BME280;1003;48.002;7.788;2023-02-18T03:56:43;100991.72;;;11.04;100.00
5595;BME280;1003;48.002;7.788;2023-02-18T03:59:11;100994.19;;;11.03;100.00
5595;BME280;1003;48.002;7.788;2023-02-18T04:01:39;100992.63;;;11.10;100.00
5595;BME280;1003;48.002;7.788;2023-02-18T04:04:06;100996.19;;;11.22;100.00
5595;BME280;1003;48.002;7.788;2023-02-18T04:06:33;100986.19;;;11.25;100.00
5595;BME280;1003;48.002;7.788;2023-02-18T04:09:00;100978.66;;;11.28;100.00
5595;BME280;1003;48.002;7.788;2023-02-18T04:11:27;100967.75;;;11.26;100.00
5595;BME280;1003;48.002;7.788;2023-02-18T04:13:55;100957.59;;;11.22;100.00
5595;BME280;1003;48.002;7.788;2023-02-18T04:16:22;100962.72;;;11.26;100.00
5595;BME280;1003;48.002;7.788;2023-02-18T04:18:49;100955.16;;;11.26;100.00
5595;BME280;1003;48.002;7.788;2023-02-18T04:21:16;100961.19;;;11.38;100.00
5595;BME280;1003;48.002;7.788;2023-02-18T04:23:43;100949.31;;;11.29;100.00
5595;BME280;1003;48.002;7.788;2023-02-18T04:26:10;100953.47;;;11.25;100.00
5595;BME280;1003;48.002;7.788;2023-02-18T04:28:37;100955.31;;;11.37;100.00
5595;BME280;1003;48.002;7.788;2023-02-18T04:31:06;100946.00;;;11.30;100.00
5595;BME280;1003;48.002;7.788;2023-02-18T04:33:33;100935.94;;;11.33;100.00
5595;BME280;1003;48.002;7.788;2023-02-18T04:36:00;100935.94;;;11.32;100.00
5595;BME280;1003;48.002;7.788;2023-02-18T04:38:28;101023.22;;;11.34;100.00
5595;BME280;1003;48.002;7.788;2023-02-18T04:40:55;101004.84;;;11.37;100.00
5595;BME280;1003;48.002;7.788;2023-02-18T04:43:22;100999.78;;;11.37;100.00
5595;BME280;1003;48.002;7.788;2023-02-18T04:45:49;100997.31;;;11.40;100.00
5595;BME280;1003;48.002;7.788;2023-02-18T04:48:18;100993.91;;;11.36;100.00
5595;BME280;1003;48.002;7.788;2023-02-18T04:50:46;100982.06;;;11.30;100.00
5595;BME280;1003;48.002;7.788;2023-02-18T04:53:13;100970.28;;;11.29;100.00
5595;BME280;1003;48.002;7.788;2023-02-18T04:55:40;100964.34;;;11.24;100.00
5595;BME280;1003;48.002;7.788;2023-02-18T04:58:07;100957.75;;;11.33;100.00
5595;BME280;1003;48.002;7.788;2023-02-18T05:00:34;100953.50;;;11.28;100.00
5595;BME280;1003;48.002;7.788;2023-02-18T05:03:01;100945.09;;;11.26;100.00
5595;BME280;1003;48.002;7.788;2023-02-18T05:05:30;100953.41;;;11.22;100.00
5595;BME280;1003;48.002;7.788;2023-02-18T05:07:57;100939.06;;;11.17;100.00
5595;BME280;1003;48.002;7.788;2023-02-18T05:10:24;100935.63;;;11.13;100.00
5595;BME280;1003;48.002;7.788;2023-02-18T05:12:51;100942.31;;;11.11;100.00
5595;BME280;1003;48.002;7.788;2023-02-18T05:15:18;100947.28;;;11.08;100.00
5595;BME280;1003;48.002;7.788;2023-02-18T05:17:45;100939.78;;;11.10;100.00
5595;BME280;1003;48.002;7.788;2023-02-18T05:20:12;100938.09;;;11.09;100.00
5595;BME280;1003;48.002;7.788;2023-02-18T05:22:41;100937.22;;;11.07;100.00
5595;BME280;1003;48.002;7.788;2023-02-18T05:25:08;100921.22;;;11.03;100.00
5595;BME280;1003;48.002;7.788;2023-02-18T05:27:35;100923.72;;;11.01;100.00
5595;BME280;1003;48.002;7.788;2023-02-18T05:30:03;100911.88;;;10.96;100.00
5595;BME280;1003;48.002;7.788;2023-02-18T05:32:31;100910.88;;;10.86;100.00
5595;BME280;1003;48.002;7.788;2023-02-18T05:34:58;100910.94;;;10.91;100.00
5595;BME280;1003;48.002;7.788;2023-02-18T05:37:25;100900.75;;;10.82;100.00
5595;BME280;1003;48.002;7.788;2023-02-18T05:39:54;100906.47;;;10.71;100.00
5595;BME280;1003;48.002;7.788;2023-02-18T05:42:21;100899.66;;;10.67;100.00
5595;BME280;1003;48.002;7.788;2023-02-18T05:44:48;100904.69;;;10.67;100.00
5595;BME280;1003;48.002;7.788;2023-02-18T05:47:15;100913.00;;;10.63;100.00
5595;BME280;1003;48.002;7.788;2023-02-18T05:49:43;100909.66;;;10.64;100.00
5595;BME280;1003;48.002;7.788;2023-02-18T05:52:11;100911.16;;;10.55;100.00
5595;BME280;1003;48.002;7.788;2023-02-18T05:54:38;100923.75;;;10.55;100.00
5595;BME280;1003;48.002;7.788;2023-02-18T05:57:07;100925.66;;;10.66;100.00
5595;BME280;1003;48.002;7.788;2023-02-18T05:59:34;100926.34;;;10.59;100.00
5595;BME280;1003;48.002;7.788;2023-02-18T06:02:01;100923.69;;;10.51;100.00
5595;BME280;1003;48.002;7.788;2023-02-18T06:04:28;100934.50;;;10.46;100.00
5595;BME280;1003;48.002;7.788;2023-02-18T06:06:55;100936.16;;;10.45;100.00
5595;BME280;1003;48.002;7.788;2023-02-18T06:09:22;100948.81;;;10.50;100.00
5595;BME280;1003;48.002;7.788;2023-02-18T06:11:50;100936.81;;;10.37;100.00
5595;BME280;1003;48.002;7.788;2023-02-18T06:14:18;100936.13;;;10.44;100.00
5595;BME280;1003;48.002;7.788;2023-02-18T06:16:45;100937.66;;;10.36;100.00
5595;BME280;1003;48.002;7.788;2023-02-18T06:19:13;100938.50;;;10.36;100.00
5595;BME280;1003;48.002;7.788;2023-02-18T06:21:40;100946.75;;;10.29;100.00
5595;BME280;1003;48.002;7.788;2023-02-18T06:24:07;100952.53;;;10.27;100.00
5595;BME280;1003;48.002;7.788;2023-02-18T06:26:34;100956.94;;;10.38;100.00
5595;BME280;1003;48.002;7.788;2023-02-18T06:29:01;100963.72;;;10.41;100.00
5595;BME280;1003;48.002;7.788;2023-02-18T06:31:29;100958.63;;;10.38;100.00
5595;BME280;1003;48.002;7.788;2023-02-18T06:33:56;100953.56;;;10.35;100.00
5595;BME280;1003;48.002;7.788;2023-02-18T06:36:23;100966.13;;;10.35;100.00
5595;BME280;1003;48.002;7.788;2023-02-18T06:38:50;100977.22;;;10.44;100.00
5595;BME280;1003;48.002;7.788;2023-02-18T06:41:19;100983.22;;;10.52;100.00
5595;BME280;1003;48.002;7.788;2023-02-18T06:43:46;100978.28;;;10.57;100.00
5595;BME280;1003;48.002;7.788;2023-02-18T06:46:13;100980.81;;;10.59;100.00
5595;BME280;1003;48.002;7.788;2023-02-18T06:48:41;100986.94;;;10.73;100.00
5595;BME280;1003;48.002;7.788;2023-02-18T06:51:08;100985.31;;;10.75;100.00
5595;BME280;1003;48.002;7.788;2023-02-18T06:53:35;100982.09;;;10.82;100.00
5595;BME280;1003;48.002;7.788;2023-02-18T06:56:03;100993.19;;;10.93;100.00
5595;BME280;1003;48.002;7.788;2023-02-18T06:58:30;100987.47;;;11.02;100.00
5595;BME280;1003;48.002;7.788;2023-02-18T07:00:58;100988.56;;;11.16;100.00
5595;BME280;1003;48.002;7.788;2023-02-18T07:03:25;100980.22;;;11.20;100.00
5595;BME280;1003;48.002;7.788;2023-02-18T07:05:53;100973.59;;;11.25;100.00
5595;BME280;1003;48.002;7.788;2023-02-18T07:08:21;100966.97;;;11.30;100.00
5595;BME280;1003;48.002;7.788;2023-02-18T07:10:48;100959.59;;;11.43;100.00
5595;BME280;1003;48.002;7.788;2023-02-18T07:13:15;100943.66;;;11.44;100.00
5595;BME280;1003;48.002;7.788;2023-02-18T07:15:42;100931.97;;;11.47;100.00
5595;BME280;1003;48.002;7.788;2023-02-18T07:18:10;100924.44;;;11.50;100.00
5595;BME280;1003;48.002;7.788;2023-02-18T07:20:37;100922.97;;;11.65;100.00
5595;BME280;1003;48.002;7.788;2023-02-18T07:23:05;100913.88;;;11.74;100.00
5595;BME280;1003;48.002;7.788;2023-02-18T07:25:32;100913.06;;;11.77;100.00
5595;BME280;1003;48.002;7.788;2023-02-18T07:27:59;100905.59;;;11.83;100.00
5595;BME280;1003;48.002;7.788;2023-02-18T07:30:26;100890.59;;;11.92;100.00
5595;BME280;1003;48.002;7.788;2023-02-18T07:32:53;100878.97;;;12.00;100.00
5595;BME280;1003;48.002;7.788;2023-02-18T07:35:20;100875.66;;;12.07;100.00
5595;BME280;1003;48.002;7.788;2023-02-18T07:37:49;100859.69;;;12.07;100.00
5595;BME280;1003;48.002;7.788;2023-02-18T07:40:20;100859.03;;;12.23;100.00
5595;BME280;1003;48.002;7.788;2023-02-18T07:42:48;100839.75;;;12.31;100.00
5595;BME280;1003;48.002;7.788;2023-02-18T07:45:15;100826.38;;;12.35;100.00
5595;BME280;1003;48.002;7.788;2023-02-18T07:47:42;100815.53;;;12.44;100.00
5595;BME280;1003;48.002;7.788;2023-02-18T07:50:13;100797.06;;;12.51;100.00
5595;BME280;1003;48.002;7.788;2023-02-18T07:52:40;100775.19;;;12.47;100.00
5595;BME280;1003;48.002;7.788;2023-02-18T07:55:08;100761.78;;;12.53;100.00
5595;BME280;1003;48.002;7.788;2023-02-18T07:57:36;100748.50;;;12.75;100.00
5595;BME280;1003;48.002;7.788;2023-02-18T08:00:22;100723.22;;;12.72;100.00
5595;BME280;1003;48.002;7.788;2023-02-18T08:02:50;100707.31;;;12.82;100.00
5595;BME280;1003;48.002;7.788;2023-02-18T08:05:17;100693.00;;;12.86;100.00
5595;BME280;1003;48.002;7.788;2023-02-18T08:07:44;100677.09;;;12.92;100.00
5595;BME280;1003;48.002;7.788;2023-02-18T08:10:11;100661.88;;;12.82;100.00
5595;BME280;1003;48.002;7.788;2023-02-18T08:12:39;100635.00;;;12.97;100.00
5595;BME280;1003;48.002;7.788;2023-02-18T08:15:08;100618.22;;;13.03;100.00
5595;BME280;1003;48.002;7.788;2023-02-18T08:17:35;100602.19;;;12.97;100.00
5595;BME280;1003;48.002;7.788;2023-02-18T08:20:03;100609.00;;;13.14;100.00
5595;BME280;1003;48.002;7.788;2023-02-18T08:22:30;100593.03;;;13.19;100.00
5595;BME280;1003;48.002;7.788;2023-02-18T08:24:57;100592.22;;;13.26;100.00
5595;BME280;1003;48.002;7.788;2023-02-18T08:27:25;100571.16;;;13.34;100.00
5595;BME280;1003;48.002;7.788;2023-02-18T08:29:53;100547.59;;;13.28;100.00
5595;BME280;1003;48.002;7.788;2023-02-18T08:32:21;100546.78;;;13.41;100.00
5595;BME280;1003;48.002;7.788;2023-02-18T08:34:48;100535.81;;;13.33;100.00
5595;BME280;1003;48.002;7.788;2023-02-18T08:37:15;100526.56;;;13.59;100.00
5595;BME280;1003;48.002;7.788;2023-02-18T08:39:42;100513.94;;;13.64;100.00
5595;BME280;1003;48.002;7.788;2023-02-18T08:42:09;100505.50;;;13.68;100.00
5595;BME280;1003;48.002;7.788;2023-02-18T08:44:36;100490.31;;;13.77;100.00
5595;BME280;1003;48.002;7.788;2023-02-18T08:47:05;100490.31;;;13.82;100.00
5595;BME280;1003;48.002;7.788;2023-02-18T08:49:32;100475.16;;;13.76;100.00
5595;BME280;1003;48.002;7.788;2023-02-18T08:51:59;100475.97;;;13.88;100.00
5595;BME280;1003;48.002;7.788;2023-02-18T08:54:26;100452.41;;;13.79;100.00
5595;BME280;1003;48.002;7.788;2023-02-18T08:56:54;100444.03;;;13.72;100.00
5595;BME280;1003;48.002;7.788;2023-02-18T08:59:22;100442.28;;;13.86;100.00
5595;BME280;1003;48.002;7.788;2023-02-18T09:01:50;100438.09;;;13.79;100.00
5595;BME280;1003;48.002;7.788;2023-02-18T09:04:18;100426.25;;;13.90;100.00
5595;BME280;1003;48.002;7.788;2023-02-18T09:06:46;100416.09;;;14.06;100.00
5595;BME280;1003;48.002;7.788;2023-02-18T09:09:15;100416.91;;;14.09;100.00
5595;BME280;1003;48.002;7.788;2023-02-18T09:11:42;100410.94;;;14.19;100.00
5595;BME280;1003;48.002;7.788;2023-02-18T09:14:10;100392.34;;;14.33;100.00
5595;BME280;1003;48.002;7.788;2023-02-18T09:16:38;100383.94;;;14.32;100.00
5595;BME280;1003;48.002;7.788;2023-02-18T09:19:06;100380.47;;;14.44;100.00
5595;BME280;1003;48.002;7.788;2023-02-18T09:21:35;100375.41;;;14.45;100.00
5595;BME280;1003;48.002;7.788;2023-02-18T09:24:02;100374.50;;;14.60;100.00
5595;BME280;1003;48.002;7.788;2023-02-18T09:26:30;100364.31;;;14.63;100.00
5595;BME280;1003;48.002;7.788;2023-02-18T09:28:57;100371.03;;;14.70;100.00
5595;BME280;1003;48.002;7.788;2023-02-18T09:31:26;100359.22;;;14.71;100.00
5595;BME280;1003;48.002;7.788;2023-02-18T09:33:56;100346.53;;;14.73;100.00
5595;BME280;1003;48.002;7.788;2023-02-18T09:36:25;100332.28;;;14.62;100.00
5595;BME280;1003;48.002;7.788;2023-02-18T09:38:54;100338.19;;;14.63;100.00
5595;BME280;1003;48.002;7.788;2023-02-18T09:41:36;100322.97;;;14.69;100.00
5595;BME280;1003;48.002;7.788;2023-02-18T09:44:10;100313.53;;;14.83;100.00
5595;BME280;1003;48.002;7.788;2023-02-18T09:46:47;100300.75;;;14.95;100.00
5595;BME280;1003;48.002;7.788;2023-02-18T09:49:20;100272.31;;;14.75;100.00
5595;BME280;1003;48.002;7.788;2023-02-18T09:51:47;100265.44;;;14.86;100.00
5595;BME280;1003;48.002;7.788;2023-02-18T09:54:18;100254.38;;;14.93;100.00
5595;BME280;1003;48.002;7.788;2023-02-18T09:56:47;100251.75;;;15.03;100.00
5595;BME280;1003;48.002;7.788;2023-02-18T09:59:18;100238.13;;;15.14;100.00
5595;BME280;1003;48.002;7.788;2023-02-18T10:01:49;100232.91;;;15.27;100.00
5595;BME280;1003;48.002;7.788;2023-02-18T10:04:22;100219.97;;;15.46;100.00
5595;BME280;1003;48.002;7.788;2023-02-18T10:06:53;100210.50;;;15.61;100.00
5595;BME280;1003;48.002;7.788;2023-02-18T10:09:27;100192.63;;;15.70;100.00
5595;BME280;1003;48.002;7.788;2023-02-18T10:11:59;100170.44;;;15.86;100.00
5595;BME280;1003;48.002;7.788;2023-02-18T10:14:28;100145.09;;;15.84;100.00
5595;BME280;1003;48.002;7.788;2023-02-18T10:16:58;100140.19;;;16.24;100.00
5595;BME280;1003;48.002;7.788;2023-02-18T10:19:32;100120.81;;;16.65;100.00
5595;BME280;1003;48.002;7.788;2023-02-18T10:22:01;100085.59;;;16.92;100.00
5595;BME280;1003;48.002;7.788;2023-02-18T10:24:34;100050.78;;;16.97;100.00
5595;BME280;1003;48.002;7.788;2023-02-18T10:27:07;100025.44;;;16.95;100.00
5595;BME280;1003;48.002;7.788;2023-02-18T10:29:35;100019.00;;;17.16;100.00
5595;BME280;1003;48.002;7.788;2023-02-18T10:32:12;100004.97;;;17.01;100.00
5595;BME280;1003;48.002;7.788;2023-02-18T10:34:48;100004.88;;;17.04;100.00
5595;BME280;1003;48.002;7.788;2023-02-18T10:37:51;99996.38;;;17.05;100.00
5595;BME280;1003;48.002;7.788;2023-02-18T10:40:43;100008.28;;;16.24;100.00
5595;BME280;1003;48.002;7.788;2023-02-18T10:43:21;100008.63;;;16.49;100.00
5595;BME280;1003;48.002;7.788;2023-02-18T10:45:59;100018.34;;;16.69;100.00
5595;BME280;1003;48.002;7.788;2023-02-18T10:48:50;100001.34;;;16.74;100.00
5595;BME280;1003;48.002;7.788;2023-02-18T10:51:28;99979.38;;;17.09;100.00
5595;BME280;1003;48.002;7.788;2023-02-18T10:53:56;99957.84;;;16.49;100.00
5595;BME280;1003;48.002;7.788;2023-02-18T10:56:38;99973.91;;;16.89;100.00
5595;BME280;1003;48.002;7.788;2023-02-18T10:59:20;99961.88;;;16.60;100.00
5595;BME280;1003;48.002;7.788;2023-02-18T11:01:55;99971.22;;;16.58;100.00
5595;BME280;1003;48.002;7.788;2023-02-18T11:04:32;99967.47;;;16.75;100.00
5595;BME280;1003;48.002;7.788;2023-02-18T11:07:04;99961.63;;;16.72;100.00
5595;BME280;1003;48.002;7.788;2023-02-18T11:09:41;99969.41;;;16.63;100.00
5595;BME280;1003;48.002;7.788;2023-02-18T11:12:16;99966.50;;;16.81;100.00
5595;BME280;1003;48.002;7.788;2023-02-18T11:14:47;99965.41;;;16.91;100.00
5595;BME280;1003;48.002;7.788;2023-02-18T11:17:20;99949.44;;;16.86;100.00
5595;BME280;1003;48.002;7.788;2023-02-18T11:19:54;99944.06;;;16.98;100.00
5595;BME280;1003;48.002;7.788;2023-02-18T11:22:24;99926.34;;;16.97;100.00
5595;BME280;1003;48.002;7.788;2023-02-18T11:24:57;99926.06;;;17.08;100.00
5595;BME280;1003;48.002;7.788;2023-02-18T11:27:31;99931.94;;;17.10;100.00
5595;BME280;1003;48.002;7.788;2023-02-18T11:30:06;99926.78;;;17.13;100.00
5595;BME280;1003;48.002;7.788;2023-02-18T11:32:43;99920.59;;;16.90;100.00
5595;BME280;1003;48.002;7.788;2023-02-18T11:35:18;99913.31;;;16.75;100.00
5595;BME280;1003;48.002;7.788;2023-02-18T11:37:46;99908.81;;;16.86;100.00
5595;BME280;1003;48.002;7.788;2023-02-18T11:40:22;99909.88;;;16.77;100.00
5595;BME280;1003;48.002;7.788;2023-02-18T11:42:51;99904.50;;;16.52;100.00
5595;BME280;1003;48.002;7.788;2023-02-18T11:45:31;99908.88;;;16.46;100.00
5595;BME280;1003;48.002;7.788;2023-02-18T11:48:02;99915.72;;;16.42;100.00
5595;BME280;1003;48.002;7.788;2023-02-18T11:50:33;99913.84;;;16.12;100.00
5595;BME280;1003;48.002;7.788;2023-02-18T11:53:28;99915.38;;;16.19;100.00
5595;BME280;1003;48.002;7.788;2023-02-18T11:55:59;99921.13;;;16.27;100.00
5595;BME280;1003;48.002;7.788;2023-02-18T11:58:40;99902.28;;;16.39;100.00
5595;BME280;1003;48.002;7.788;2023-02-18T12:01:19;99888.94;;;16.31;100.00
5595;BME280;1003;48.002;7.788;2023-02-18T12:03:57;99887.59;;;16.53;100.00
5595;BME280;1003;48.002;7.788;2023-02-18T12:06:30;99883.72;;;16.35;100.00
5595;BME280;1003;48.002;7.788;2023-02-18T12:09:05;99877.81;;;16.36;100.00
5595;BME280;1003;48.002;7.788;2023-02-18T12:11:38;99864.63;;;16.58;100.00
5595;BME280;1003;48.002;7.788;2023-02-18T12:14:16;99864.16;;;16.42;100.00
5595;BME280;1003;48.002;7.788;2023-02-18T12:19:59;99857.41;;;16.04;100.00
5595;BME280;1003;48.002;7.788;2023-02-18T12:22:40;99879.22;;;16.11;100.00
5595;BME280;1003;48.002;7.788;2023-02-18T12:25:30;99872.94;;;16.27;100.00
5595;BME280;1003;48.002;7.788;2023-02-18T12:28:30;99875.38;;;16.30;100.00
5595;BME280;1003;48.002;7.788;2023-02-18T12:31:23;99853.72;;;16.17;100.00
5595;BME280;1003;48.002;7.788;2023-02-18T12:34:18;99856.94;;;16.23;100.00
5595;BME280;1003;48.002;7.788;2023-02-18T12:37:04;99850.75;;;16.35;100.00
5595;BME280;1003;48.002;7.788;2023-02-18T12:40:00;99836.97;;;16.45;100.00
5595;BME280;1003;48.002;7.788;2023-02-18T12:42:49;99828.13;;;16.62;100.00
5595;BME280;1003;48.002;7.788;2023-02-18T12:45:48;99812.81;;;17.00;100.00
5595;BME280;1003;48.002;7.788;2023-02-18T12:48:55;99800.69;;;17.10;100.00
5595;BME280;1003;48.002;7.788;2023-02-18T12:51:46;99787.38;;;17.02;100.00
5595;BME280;1003;48.002;7.788;2023-02-18T12:54:45;99780.25;;;17.15;100.00
5595;BME280;1003;48.002;7.788;2023-02-18T12:57:34;99780.66;;;17.30;100.00
5595;BME280;1003;48.002;7.788;2023-02-18T13:00:46;99765.63;;;17.23;100.00
5595;BME280;1003;48.002;7.788;2023-02-18T13:03:55;99736.88;;;16.91;100.00
5595;BME280;1003;48.002;7.788;2023-02-18T13:06:52;99745.31;;;16.92;100.00
5595;BME280;1003;48.002;7.788;2023-02-18T13:09:34;99728.66;;;17.13;100.00
5595;BME280;1003;48.002;7.788;2023-02-18T13:12:12;99730.03;;;16.61;100.00
5595;BME280;1003;48.002;7.788;2023-02-18T13:14:48;99726.34;;;16.40;100.00
5595;BME280;1003;48.002;7.788;2023-02-18T13:17:26;99714.19;;;16.18;100.00
5595;BME280;1003;48.002;7.788;2023-02-18T13:20:02;99720.22;;;16.13;100.00
5595;BME280;1003;48.002;7.788;2023-02-18T13:22:32;99716.22;;;16.04;100.00
5595;BME280;1003;48.002;7.788;2023-02-18T13:24:59;99723.59;;;16.15;100.00
5595;BME280;1003;48.002;7.788;2023-02-18T13:27:35;99705.94;;;16.09;100.00
5595;BME280;1003;48.002;7.788;2023-02-18T13:30:20;99687.63;;;15.97;100.00
5595;BME280;1003;48.002;7.788;2023-02-18T13:33:02;99686.69;;;16.01;100.00
5595;BME280;1003;48.002;7.788;2023-02-18T13:35:40;99693.00;;;16.19;100.00